Time;durP1;ratioP1;P1;durP2;ratioP2;P2;SDS_P1;SDS_P2;PMS_P1;PMS_P2;Temp;Humidity;BMP_temperature;BMP_pressure;BME280_temperature;BME280_humidity;BME280_pressure;Samples;Min_cycle;Max_cycle;Signal;HPM_P1;HPM_P2
2021/07/27 00:01:40;;;;;;;10.25;6.47;;;;;;;17.17;77.84;99996.44;10313009;28;20235;-76
2021/07/27 00:06:44;;;;;;;10.27;6.50;;;;;;;17.06;77.70;100002.22;10324466;28;20235;-76
2021/07/27 00:11:47;;;;;;;9.18;6.70;;;;;;;17.04;78.15;100011.38;10310352;28;20292;-76
2021/07/27 00:16:50;;;;;;;11.43;6.22;;;;;;;17.04;78.08;99994.25;10310221;28;20346;-75
2021/07/27 00:21:54;;;;;;;10.60;6.40;;;;;;;16.92;78.50;99993.81;10311044;28;20238;-75
2021/07/27 00:26:57;;;;;;;11.50;5.93;;;;;;;16.82;78.58;99985.03;10313280;28;20246;-76
2021/07/27 00:32:00;;;;;;;8.32;6.60;;;;;;;16.72;78.91;99992.50;10316190;28;20325;-76
2021/07/27 00:37:05;;;;;;;10.63;6.47;;;;;;;16.69;79.00;99985.56;10313938;28;20239;-76
2021/07/27 00:42:08;;;;;;;9.98;6.35;;;;;;;16.59;78.88;99980.34;10317637;28;20245;-75
2021/07/27 00:47:11;;;;;;;10.20;6.32;;;;;;;16.52;79.18;99968.50;10315496;28;20731;-76
2021/07/27 00:52:15;;;;;;;8.55;6.10;;;;;;;16.45;78.80;99972.06;10315055;28;20905;-76
2021/07/27 00:57:18;;;;;;;8.27;5.35;;;;;;;16.58;78.41;99967.78;10315746;28;20304;-76
2021/07/27 01:02:21;;;;;;;9.43;5.93;;;;;;;16.55;78.02;99972.72;10316297;28;20243;-76
2021/07/27 01:07:26;;;;;;;12.85;5.70;;;;;;;16.49;78.33;99968.00;10317131;28;20239;-76
2021/07/27 01:12:31;;;;;;;8.75;6.18;;;;;;;16.35;78.67;99962.25;10314156;28;20292;-76
2021/07/27 01:17:34;;;;;;;8.88;5.97;;;;;;;16.38;78.77;99971.06;10313065;28;20283;-76
2021/07/27 01:44:10;;;;;;;11.55;7.10;;;;;;;16.25;78.63;99963.44;10278235;28;20230;-75
2021/07/27 01:49:13;;;;;;;11.93;7.35;;;;;;;16.22;78.78;99971.91;10312251;28;20628;-75
2021/07/27 01:54:18;;;;;;;12.93;7.60;;;;;;;16.20;78.82;99968.50;10313729;28;20243;-76
2021/07/27 01:59:20;;;;;;;9.40;7.13;;;;;;;16.04;79.00;99969.38;10315049;28;20929;-75
2021/07/27 02:04:23;;;;;;;12.60;6.93;;;;;;;16.20;78.54;99971.22;10314657;28;20285;-76
2021/07/27 02:09:28;;;;;;;15.98;7.70;;;;;;;16.23;78.34;99973.59;10313415;28;20239;-75
2021/07/27 02:15:03;;;;;;;13.77;8.35;;;;;;;16.18;78.45;99967.84;10308591;28;20905;-76
2021/07/27 02:19:59;;;;;;;15.32;8.88;;;;;;;16.21;78.18;99981.03;10310778;28;20255;-75
2021/07/27 02:25:04;;;;;;;13.95;8.20;;;;;;;16.13;78.38;99977.34;10311914;28;21417;-75
2021/07/27 02:30:08;;;;;;;13.52;8.82;;;;;;;16.14;78.31;99978.19;10312474;28;20242;-75
2021/07/27 02:35:11;;;;;;;15.75;8.73;;;;;;;16.17;78.15;99993.25;10294506;28;20238;-75
2021/07/27 02:40:16;;;;;;;13.27;8.60;;;;;;;16.09;78.47;99989.50;10311447;28;20246;-75
2021/07/27 02:45:22;;;;;;;15.05;8.20;;;;;;;16.21;77.94;99992.75;10314608;28;20799;-75
2021/07/27 02:50:25;;;;;;;14.18;7.90;;;;;;;16.26;77.58;99990.38;10311471;28;20239;-76
2021/07/27 02:55:30;;;;;;;12.57;7.72;;;;;;;16.15;77.90;99991.56;10310203;28;20231;-75
2021/07/27 03:00:33;;;;;;;13.35;8.05;;;;;;;16.14;78.07;99992.56;10308667;28;20247;-75
2021/07/27 03:05:36;;;;;;;14.95;8.68;;;;;;;16.09;78.77;99989.50;10309970;28;20742;-74
2021/07/27 03:10:40;;;;;;;13.85;9.00;;;;;;;16.30;78.36;99982.78;10311049;28;20243;-75
2021/07/27 03:15:43;;;;;;;17.52;9.30;;;;;;;16.33;78.06;99980.56;10309993;28;20279;-75
2021/07/27 03:20:46;;;;;;;16.40;9.95;;;;;;;16.05;80.09;99985.47;10311534;28;20757;-74
2021/07/27 03:25:50;;;;;;;17.73;10.73;;;;;;;15.88;80.82;99989.19;10310886;28;20289;-74
2021/07/27 03:30:52;;;;;;;20.10;10.88;;;;;;;15.85;81.38;99995.78;10311173;28;20271;-74
2021/07/27 03:35:55;;;;;;;18.70;10.98;;;;;;;15.81;81.51;100012.53;10310206;28;20238;-74
2021/07/27 03:41:05;;;;;;;17.50;10.00;;;;;;;15.89;80.99;100010.69;10311689;28;20795;-75
2021/07/27 03:46:08;;;;;;;22.35;12.45;;;;;;;15.95;80.99;100002.91;10309933;28;20289;-75
2021/07/27 03:51:13;;;;;;;20.23;11.23;;;;;;;16.10;80.55;100002.06;10307647;28;20247;-74
2021/07/27 03:56:17;;;;;;;19.15;11.70;;;;;;;16.18;80.30;100005.75;10310936;28;20238;-74
2021/07/27 04:01:20;;;;;;;20.55;11.15;;;;;;;16.25;79.77;100015.75;10311455;28;20587;-75
2021/07/27 04:06:23;;;;;;;20.70;12.95;;;;;;;16.31;79.27;100014.25;10308951;28;20720;-74
2021/07/27 04:11:27;;;;;;;24.02;13.02;;;;;;;16.38;79.01;100014.44;10309543;28;20235;-75
2021/07/27 04:16:30;;;;;;;22.65;12.80;;;;;;;16.35;78.98;100012.91;10308960;28;20296;-74
2021/07/27 04:21:34;;;;;;;21.30;12.40;;;;;;;16.39;78.70;100013.41;10310796;28;20744;-74
2021/07/27 04:26:38;;;;;;;22.73;12.10;;;;;;;16.53;78.58;100020.84;10307943;28;20362;-74
2021/07/27 04:31:41;;;;;;;24.52;13.00;;;;;;;16.72;78.00;100023.19;10308956;28;20246;-74
2021/07/27 04:36:44;;;;;;;23.17;12.88;;;;;;;16.71;77.53;100020.66;10309768;28;20281;-75
2021/07/27 04:41:48;;;;;;;25.45;13.25;;;;;;;16.69;77.52;100023.53;10308307;28;20259;-74
2021/07/27 04:46:51;;;;;;;23.70;13.85;;;;;;;16.77;77.67;100033.50;10309422;28;20285;-75
2021/07/27 04:51:54;;;;;;;23.27;13.18;;;;;;;16.74;77.64;100031.16;10309163;28;20235;-75
2021/07/27 04:56:58;;;;;;;28.15;13.90;;;;;;;16.85;77.23;100029.94;10309177;28;20278;-75
2021/07/27 05:02:01;;;;;;;25.00;13.98;;;;;;;16.91;77.36;100032.78;10290826;28;20243;-76
2021/07/27 05:07:04;;;;;;;25.63;14.55;;;;;;;16.99;77.03;100037.34;10309230;28;20245;-76
2021/07/27 05:12:09;;;;;;;25.65;15.68;;;;;;;16.91;76.86;100037.38;10310453;28;20255;-75
2021/07/27 05:17:12;;;;;;;30.23;17.20;;;;;;;16.81;77.34;100032.13;10314095;28;20231;-74
2021/07/27 05:22:15;;;;;;;32.13;18.13;;;;;;;16.92;77.31;100030.91;10315079;28;20235;-76
2021/07/27 05:27:21;;;;;;;28.15;15.70;;;;;;;16.92;76.96;100039.06;10314815;28;20234;-75
2021/07/27 05:32:25;;;;;;;35.50;16.98;;;;;;;16.94;77.13;100039.72;10311440;28;20662;-75
2021/07/27 05:37:28;;;;;;;30.48;16.40;;;;;;;16.96;76.90;100041.25;10314558;28;20676;-75
2021/07/27 05:42:33;;;;;;;33.03;17.45;;;;;;;16.98;76.66;100033.78;10315813;28;20239;-74
2021/07/27 05:47:36;;;;;;;34.40;18.40;;;;;;;17.17;76.29;100040.72;10312002;28;20320;-74
2021/07/27 05:52:39;;;;;;;29.98;16.75;;;;;;;16.98;77.06;100038.38;10314986;28;20271;-75
2021/07/27 05:57:43;;;;;;;33.10;18.23;;;;;;;16.72;77.66;100042.16;10312446;28;20242;-75
2021/07/27 06:02:46;;;;;;;34.45;19.23;;;;;;;17.08;76.70;100039.00;10310519;28;20242;-74
2021/07/27 06:07:49;;;;;;;43.08;21.38;;;;;;;17.33;75.34;100026.19;10310969;28;20231;-75
2021/07/27 06:12:53;;;;;;;47.42;22.27;;;;;;;17.12;74.76;100039.53;10292026;28;20834;-74
2021/07/27 06:17:56;;;;;;;44.08;22.73;;;;;;;17.47;75.17;100036.34;10309528;28;20314;-75
2021/07/27 06:22:59;;;;;;;47.85;24.27;;;;;;;17.53;73.57;100039.38;10309599;28;20295;-75
2021/07/27 06:28:05;;;;;;;44.35;23.77;;;;;;;17.40;74.44;100045.34;10310375;28;20246;-75
2021/07/27 06:33:07;;;;;;;39.50;21.58;;;;;;;17.60;72.92;100053.91;10294764;28;20234;-75
2021/07/27 06:38:10;;;;;;;36.35;20.83;;;;;;;17.73;72.63;100039.75;10288398;28;20258;-74
2021/07/27 06:43:14;;;;;;;36.40;19.35;;;;;;;17.87;71.19;100050.69;10287798;28;20374;-75
2021/07/27 06:48:17;;;;;;;43.35;20.65;;;;;;;17.96;71.51;100053.34;10290905;28;20235;-75
2021/07/27 06:53:20;;;;;;;35.25;20.20;;;;;;;18.12;70.65;100061.41;10309845;28;20242;-75
2021/07/27 06:58:25;;;;;;;39.83;20.42;;;;;;;17.90;70.83;100071.22;10310356;28;21451;-75
2021/07/27 07:03:28;;;;;;;33.67;18.50;;;;;;;17.88;70.30;100071.41;10309964;28;20300;-75
2021/07/27 07:08:31;;;;;;;35.05;19.05;;;;;;;17.86;70.63;100069.88;10276298;28;20239;-75
2021/07/27 07:13:35;;;;;;;35.17;20.23;;;;;;;18.31;69.54;100079.09;10285870;28;20665;-75
2021/07/27 07:18:39;;;;;;;35.00;20.30;;;;;;;18.01;69.84;100075.41;10273377;28;20231;-75
2021/07/27 07:23:42;;;;;;;32.92;19.15;;;;;;;18.03;70.33;100070.66;10266826;28;21572;-75
2021/07/27 07:28:46;;;;;;;34.47;19.30;;;;;;;17.95;69.86;100089.69;10300789;28;20386;-75
2021/07/27 07:33:50;;;;;;;39.00;21.75;;;;;;;18.06;70.00;100084.72;10307817;28;20242;-75
2021/07/27 07:38:55;;;;;;;37.30;21.17;;;;;;;18.28;69.55;100080.31;10307373;28;20239;-75
2021/07/27 07:44:00;;;;;;;41.42;23.17;;;;;;;18.41;68.84;100085.13;10307139;28;20302;-75
2021/07/27 07:49:03;;;;;;;38.75;21.77;;;;;;;18.49;68.95;100089.66;10305653;28;20378;-75
2021/07/27 07:54:05;;;;;;;39.13;22.23;;;;;;;18.97;67.45;100085.63;10290152;28;20239;-75
2021/07/27 07:59:10;;;;;;;42.60;23.58;;;;;;;18.99;67.21;100077.31;10306285;28;20329;-75
2021/07/27 08:04:13;;;;;;;42.45;25.38;;;;;;;19.84;65.23;100078.66;10294857;28;20300;-75
2021/07/27 08:09:15;;;;;;;43.13;23.25;;;;;;;19.90;63.41;100072.41;10305052;28;20238;-75
2021/07/27 08:14:21;;;;;;;43.08;23.73;;;;;;;20.64;63.51;100074.81;10305578;28;20231;-75
2021/07/27 08:19:24;;;;;;;37.47;22.40;;;;;;;22.01;59.21;100073.25;10289448;28;20916;-75
2021/07/27 08:24:27;;;;;;;38.00;22.88;;;;;;;22.02;56.72;100075.81;10307208;28;20314;-75
2021/07/27 08:29:32;;;;;;;33.50;21.52;;;;;;;20.32;61.25;100098.03;10305497;28;20794;-75
2021/07/27 08:34:36;;;;;;;34.13;19.67;;;;;;;19.73;63.07;100098.22;10305080;28;20297;-75
2021/07/27 08:39:39;;;;;;;33.72;19.73;;;;;;;20.41;61.52;100096.03;10304645;28;20784;-75
2021/07/27 08:44:44;;;;;;;28.77;18.38;;;;;;;20.93;60.64;100105.72;10308719;28;20613;-76
2021/07/27 08:49:47;;;;;;;26.17;16.38;;;;;;;21.54;55.72;100096.84;10310764;28;20901;-75
2021/07/27 08:54:50;;;;;;;23.80;15.65;;;;;;;21.67;56.41;100105.09;10312171;28;20277;-76
2021/07/27 08:59:55;;;;;;;22.83;15.32;;;;;;;21.30;56.41;100109.94;10312327;28;20660;-75
2021/07/27 09:05:08;;;;;;;23.08;14.48;;;;;;;20.89;58.16;100107.97;10311762;28;20696;-75
2021/07/27 09:10:12;;;;;;;19.15;13.75;;;;;;;21.05;58.51;100115.03;10311292;28;20307;-75
2021/07/27 09:15:17;;;;;;;21.23;14.57;;;;;;;21.70;55.37;100104.69;10311680;28;20239;-75
2021/07/27 09:20:31;;;;;;;20.38;14.38;;;;;;;21.55;56.10;100114.91;10311364;28;20329;-75
2021/07/27 09:25:35;;;;;;;19.92;13.93;;;;;;;21.56;55.89;100116.63;10310331;28;20247;-75
2021/07/27 09:30:42;;;;;;;18.92;13.70;;;;;;;21.75;56.25;100115.03;10312038;28;20250;-75
2021/07/27 09:35:45;;;;;;;19.80;12.40;;;;;;;22.19;53.01;100102.75;10295784;28;20243;-75
2021/07/27 09:40:51;;;;;;;16.83;12.50;;;;;;;21.73;53.61;100095.25;10310547;28;20246;-75
2021/07/27 09:46:16;;;;;;;19.40;12.27;;;;;;;22.82;51.22;100083.22;10279977;28;20235;-75
2021/07/27 09:51:19;;;;;;;19.58;12.68;;;;;;;23.21;52.25;100080.47;10271823;28;20239;-75
2021/07/27 09:56:22;;;;;;;17.98;13.20;;;;;;;23.11;50.38;100088.28;10269992;28;20236;-75
2021/07/27 10:01:28;;;;;;;17.42;12.77;;;;;;;23.12;50.89;100079.00;10284588;28;20239;-75
2021/07/27 10:06:33;;;;;;;16.88;12.43;;;;;;;23.54;48.75;100084.97;10310382;28;20762;-75
2021/07/27 10:11:39;;;;;;;18.05;11.73;;;;;;;23.37;50.68;100092.00;10309608;28;20285;-75
2021/07/27 10:16:44;;;;;;;16.27;11.23;;;;;;;24.06;48.55;100084.97;10309437;28;21505;-76
2021/07/27 10:21:48;;;;;;;15.70;11.82;;;;;;;24.37;47.46;100086.03;10280646;28;20625;-75
2021/07/27 10:26:51;;;;;;;15.95;11.98;;;;;;;24.59;48.37;100087.34;10271554;28;20247;-75
2021/07/27 10:31:55;;;;;;;14.68;11.07;;;;;;;24.83;46.09;100077.44;10268752;28;20235;-75
2021/07/27 10:37:06;;;;;;;18.02;12.60;;;;;;;23.83;48.88;100089.13;10268431;28;20238;-76
2021/07/27 10:42:09;;;;;;;18.27;12.85;;;;;;;23.94;49.26;100087.53;10268640;28;20239;-76
2021/07/27 10:47:20;;;;;;;15.20;12.07;;;;;;;22.84;51.13;100095.66;10269901;28;20579;-76
2021/07/27 10:52:26;;;;;;;17.55;12.80;;;;;;;22.72;51.93;100087.25;10308442;28;20239;-76
2021/07/27 10:57:32;;;;;;;16.63;11.30;;;;;;;23.94;49.08;100079.31;10308991;28;20737;-76
2021/07/27 11:02:36;;;;;;;17.33;12.40;;;;;;;25.53;46.61;100079.84;10310023;28;20234;-76
2021/07/27 11:07:40;;;;;;;14.07;11.10;;;;;;;26.06;45.20;100081.94;10310159;28;20258;-76
2021/07/27 11:12:43;;;;;;;18.73;12.32;;;;;;;25.34;45.36;100079.03;10313370;28;20347;-76
2021/07/27 11:17:48;;;;;;;15.52;11.48;;;;;;;25.38;45.62;100077.50;10305224;28;20326;-76
2021/07/27 11:22:53;;;;;;;18.08;11.43;;;;;;;24.98;47.27;100069.69;10290771;28;20235;-76
2021/07/27 11:27:56;;;;;;;15.43;10.15;;;;;;;24.91;46.91;100082.63;10307621;28;20238;-76
2021/07/27 11:33:08;;;;;;;14.10;9.35;;;;;;;24.57;44.74;100069.41;10307755;28;20289;-76
2021/07/27 11:38:13;;;;;;;11.27;8.55;;;;;;;24.98;46.59;100057.81;10306858;28;20231;-76
2021/07/27 11:43:17;;;;;;;9.88;8.10;;;;;;;25.90;41.85;100063.31;10306872;28;20239;-77
2021/07/27 11:48:32;;;;;;;12.30;9.40;;;;;;;24.80;44.50;100061.41;10310132;28;20234;-76
2021/07/27 11:53:39;;;;;;;12.20;8.65;;;;;;;26.35;41.30;100054.63;10308935;28;20275;-76
2021/07/27 11:58:44;;;;;;;13.15;9.23;;;;;;;27.01;40.10;100038.03;10309185;28;20246;-76
2021/07/27 12:03:48;;;;;;;10.52;7.90;;;;;;;26.85;40.21;100042.34;10310097;28;20247;-76
2021/07/27 12:08:51;;;;;;;10.52;8.60;;;;;;;25.67;42.48;100031.06;10290935;28;21565;-75
2021/07/27 12:13:54;;;;;;;10.35;7.45;;;;;;;26.57;39.72;100030.09;10287874;28;20289;-76
2021/07/27 12:18:58;;;;;;;11.13;8.07;;;;;;;26.36;39.49;100019.69;10286040;28;20754;-76
2021/07/27 12:24:01;;;;;;;10.80;7.88;;;;;;;26.38;39.96;100009.25;10282753;28;20590;-77
2021/07/27 12:29:05;;;;;;;9.75;8.20;;;;;;;26.96;38.53;100005.69;10287153;28;20313;-76
2021/07/27 12:34:09;;;;;;;9.82;7.40;;;;;;;26.16;40.48;99995.19;10284660;28;20238;-77
2021/07/27 12:39:12;;;;;;;8.60;7.70;;;;;;;26.40;40.08;99991.41;10287472;28;20650;-75
2021/07/27 12:44:16;;;;;;;9.10;7.63;;;;;;;26.00;40.08;99991.19;10282983;28;20767;-75
2021/07/27 12:49:21;;;;;;;10.55;8.18;;;;;;;25.46;41.48;99982.03;10265900;28;20613;-76
2021/07/27 12:54:23;;;;;;;10.85;7.55;;;;;;;25.80;41.04;99975.84;10266930;28;20242;-76
2021/07/27 12:59:26;;;;;;;9.93;8.35;;;;;;;27.59;38.52;99968.09;10264775;28;20242;-76
2021/07/27 13:04:30;;;;;;;12.00;8.38;;;;;;;28.22;36.83;99961.53;10268110;28;20243;-76
2021/07/27 13:09:33;;;;;;;10.70;7.68;;;;;;;27.33;38.06;99969.50;10265346;28;20247;-76
2021/07/27 13:14:36;;;;;;;10.18;8.38;;;;;;;27.09;38.24;99972.34;10267266;28;20240;-76
2021/07/27 13:19:40;;;;;;;10.38;7.90;;;;;;;28.22;36.77;99952.41;10273375;28;20608;-75
2021/07/27 13:24:43;;;;;;;10.43;7.55;;;;;;;28.22;36.47;99952.41;10279645;28;20232;-76
2021/07/27 13:29:46;;;;;;;9.60;7.40;;;;;;;27.88;36.05;99944.09;10284551;28;20617;-75
2021/07/27 13:34:50;;;;;;;9.77;7.47;;;;;;;28.15;35.94;99946.22;10289008;28;20327;-75
2021/07/27 13:39:53;;;;;;;9.73;7.90;;;;;;;26.67;38.31;99938.63;10278478;28;20239;-75
2021/07/27 13:44:56;;;;;;;12.98;8.10;;;;;;;25.57;40.05;99938.09;10274279;28;20244;-75
2021/07/27 13:50:01;;;;;;;10.45;8.05;;;;;;;26.05;39.64;99934.41;10275806;28;20740;-76
2021/07/27 13:55:05;;;;;;;8.70;7.30;;;;;;;25.96;40.77;99929.47;10284916;28;20243;-75
2021/07/27 14:00:12;;;;;;;11.90;8.18;;;;;;;25.84;39.30;99922.06;10287033;28;20251;-75
2021/07/27 14:05:18;;;;;;;13.20;8.18;;;;;;;25.00;41.79;99921.06;10305889;28;20231;-75
2021/07/27 14:10:22;;;;;;;9.98;7.75;;;;;;;24.60;42.98;99916.06;10306924;28;20748;-75
2021/07/27 14:15:25;;;;;;;8.90;7.03;;;;;;;24.85;41.51;99912.38;10269685;28;20584;-76
2021/07/27 14:20:29;;;;;;;9.75;7.47;;;;;;;24.84;41.46;99908.81;10274321;28;21710;-75
2021/07/27 14:25:32;;;;;;;10.80;7.68;;;;;;;24.66;42.46;99919.81;10309400;28;20242;-77
2021/07/27 14:30:35;;;;;;;10.13;7.38;;;;;;;24.53;42.33;99918.88;10310565;28;20716;-76
2021/07/27 14:35:40;;;;;;;11.45;7.18;;;;;;;24.25;43.27;99926.75;10308235;28;20374;-75
2021/07/27 14:40:43;;;;;;;9.55;7.18;;;;;;;24.43;43.13;99934.19;10308445;28;21396;-76
2021/07/27 14:45:46;;;;;;;9.68;6.65;;;;;;;23.97;44.78;99932.66;10307455;28;20727;-75
2021/07/27 14:50:50;;;;;;;10.48;7.10;;;;;;;23.48;45.13;99950.69;10308911;28;20622;-77
2021/07/27 14:55:53;;;;;;;8.65;7.72;;;;;;;23.20;47.47;99947.28;10291140;28;20254;-77
2021/07/27 15:00:56;;;;;;;15.40;9.00;;;;;;;21.37;53.29;99967.94;10309129;28;20243;-77
2021/07/27 15:06:02;;;;;;;10.40;8.25;;;;;;;20.93;55.40;99980.97;10311774;28;20239;-76
2021/07/27 15:11:04;;;;;;;7.97;6.45;;;;;;;19.01;61.51;99980.81;10310090;28;20712;-76
2021/07/27 15:16:07;;;;;;;11.00;6.05;;;;;;;17.07;70.79;100017.47;10298336;28;20729;-77
2021/07/27 15:21:12;;;;;;;10.60;6.93;;;;;;;16.36;77.39;100009.19;10293720;28;20254;-77
2021/07/27 15:26:16;;;;;;;10.32;6.75;;;;;;;15.98;80.75;99999.84;10318837;28;20235;-78
2021/07/27 15:31:19;;;;;;;8.50;6.40;;;;;;;15.88;82.18;99995.44;10336638;28;21179;-79
2021/07/27 15:36:23;;;;;;;8.27;5.80;;;;;;;15.73;81.82;99991.69;10317771;28;20235;-79
2021/07/27 15:41:26;;;;;;;9.63;5.88;;;;;;;15.93;83.11;99989.50;10320566;28;20340;-79
2021/07/27 15:46:29;;;;;;;8.55;6.13;;;;;;;16.21;83.76;99986.44;10332455;28;20250;-78
2021/07/27 15:51:33;;;;;;;9.88;7.15;;;;;;;16.48;83.33;99978.00;10310121;28;20321;-77
2021/07/27 15:56:36;;;;;;;10.63;6.88;;;;;;;16.89;82.74;99972.44;10308434;28;20235;-77
2021/07/27 16:01:39;;;;;;;10.82;7.75;;;;;;;17.43;83.05;99963.56;10306473;28;20227;-77
2021/07/27 16:06:44;;;;;;;11.75;7.70;;;;;;;17.65;79.29;99965.44;10306690;28;20235;-76
2021/07/27 16:11:46;;;;;;;11.82;7.57;;;;;;;17.64;76.69;99976.50;10289302;28;20288;-76
2021/07/27 16:16:49;;;;;;;11.20;7.35;;;;;;;17.65;75.03;99972.75;10307519;28;21015;-76
2021/07/27 16:21:53;;;;;;;12.32;8.55;;;;;;;17.97;76.87;99966.25;10308368;28;20297;-77
2021/07/27 16:26:56;;;;;;;11.48;8.10;;;;;;;18.08;75.23;99968.53;10308346;28;20255;-76
2021/07/27 16:31:59;;;;;;;10.65;7.18;;;;;;;18.15;75.36;99982.22;10306210;28;20239;-77
2021/07/27 16:37:05;;;;;;;11.20;7.07;;;;;;;18.01;76.42;99978.44;10304898;28;20235;-77
2021/07/27 16:42:08;;;;;;;10.45;6.78;;;;;;;18.01;74.32;99992.00;10311227;28;20289;-76
2021/07/27 16:47:11;;;;;;;11.23;6.78;;;;;;;17.86;75.18;99985.66;10305217;28;20710;-76
2021/07/27 16:52:15;;;;;;;10.10;6.50;;;;;;;17.97;76.14;99990.72;10307365;28;20314;-76
2021/07/27 16:57:18;;;;;;;10.30;6.75;;;;;;;17.66;73.66;100010.59;10308796;28;20238;-76
2021/07/27 17:02:21;;;;;;;8.98;6.35;;;;;;;17.38;75.29;100018.38;10287139;28;20957;-75
2021/07/27 17:07:25;;;;;;;9.48;6.28;;;;;;;17.41;74.62;100006.31;10289616;28;20231;-75
2021/07/27 17:12:29;;;;;;;9.85;6.85;;;;;;;17.56;75.39;100020.00;10312885;28;20274;-76
2021/07/27 17:17:33;;;;;;;9.45;6.90;;;;;;;17.34;76.46;100024.34;10313091;28;20243;-75
2021/07/27 17:22:41;;;;;;;11.02;7.53;;;;;;;17.31;76.91;100024.72;10312284;28;20480;-77
2021/07/27 17:27:45;;;;;;;10.88;6.85;;;;;;;17.02;77.51;100035.13;10311142;28;20344;-76
2021/07/27 17:32:47;;;;;;;10.70;7.18;;;;;;;16.76;77.36;100043.53;10312798;28;20243;-77
2021/07/27 17:37:52;;;;;;;9.00;6.82;;;;;;;16.49;78.42;100036.63;10315817;28;20239;-77
2021/07/27 17:42:55;;;;;;;11.35;6.70;;;;;;;16.62;78.21;100041.53;10294695;28;20324;-77
2021/07/27 17:47:58;;;;;;;10.43;6.65;;;;;;;16.63;78.35;100039.66;10305507;28;20251;-76
2021/07/27 17:53:02;;;;;;;10.32;7.18;;;;;;;16.77;78.54;100039.78;10287683;28;20441;-76
2021/07/27 17:58:05;;;;;;;8.68;6.28;;;;;;;16.76;78.12;100031.81;10267976;28;20330;-76
2021/07/27 18:03:11;;;;;;;10.38;6.57;;;;;;;16.76;78.15;100035.38;10269523;28;20248;-76
2021/07/27 18:08:15;;;;;;;12.70;7.07;;;;;;;16.79;78.87;100018.75;10271496;28;20327;-76
2021/07/27 18:13:18;;;;;;;10.88;6.65;;;;;;;16.82;78.94;99995.88;10269115;28;20263;-76
2021/07/27 18:18:23;;;;;;;8.88;6.65;;;;;;;16.86;79.28;100008.03;10267657;28;20239;-77
2021/07/27 18:23:27;;;;;;;9.82;6.90;;;;;;;16.86;79.26;100002.63;10270880;28;21451;-76
2021/07/27 18:28:32;;;;;;;10.73;7.00;;;;;;;16.81;79.71;100002.28;10270004;28;20239;-74
2021/07/27 18:33:34;;;;;;;12.30;7.00;;;;;;;16.85;80.12;100000.09;10270086;28;20259;-76
2021/07/27 18:38:39;;;;;;;12.50;7.35;;;;;;;16.97;81.51;99999.53;10269168;28;20334;-76
2021/07/27 18:43:45;;;;;;;11.60;7.95;;;;;;;17.21;82.30;99989.63;10271388;28;20713;-76
2021/07/27 18:48:48;;;;;;;10.73;7.20;;;;;;;17.30;82.04;99983.13;10270549;28;20244;-76
2021/07/27 18:53:54;;;;;;;12.25;6.50;;;;;;;17.27;81.95;99988.91;10269590;28;20632;-77
2021/07/27 18:58:57;;;;;;;12.63;7.95;;;;;;;17.14;81.61;99989.50;10268533;28;21354;-76
2021/07/27 19:04:00;;;;;;;12.57;7.47;;;;;;;17.09;82.78;100018.16;10269205;28;20314;-76
2021/07/27 19:09:04;;;;;;;11.60;7.25;;;;;;;17.05;83.00;100023.06;10268366;28;20322;-76
2021/07/27 19:14:07;;;;;;;11.27;7.35;;;;;;;16.99;82.12;100048.19;10268176;28;20239;-76
2021/07/27 19:19:10;;;;;;;11.63;7.55;;;;;;;16.74;82.19;100039.28;10269502;28;20874;-76
2021/07/27 19:24:14;;;;;;;11.43;8.02;;;;;;;16.67;81.54;100038.28;10267730;28;20907;-76
2021/07/27 19:29:17;;;;;;;12.80;8.10;;;;;;;16.68;81.27;100026.44;10270230;28;20318;-76
2021/07/27 19:34:19;;;;;;;13.20;8.50;;;;;;;16.60;80.70;100019.16;10271341;28;20231;-76
2021/07/27 19:39:24;;;;;;;15.82;8.18;;;;;;;16.52;80.90;100019.16;10269391;28;20255;-76
2021/07/27 19:44:37;;;;;;;12.82;8.25;;;;;;;16.36;80.76;100017.31;10273683;28;20235;-75
2021/07/27 19:49:46;;;;;;;12.93;7.85;;;;;;;16.40;80.49;100017.81;10291242;28;20831;-75
2021/07/27 19:54:50;;;;;;;10.88;7.47;;;;;;;16.40;79.53;100024.09;10306701;28;20361;-75
2021/07/27 19:59:53;;;;;;;11.65;7.30;;;;;;;16.51;79.35;100022.88;10297569;28;20326;-75
2021/07/27 20:04:56;;;;;;;11.70;7.75;;;;;;;16.54;78.95;100026.09;10300443;28;20990;-75
2021/07/27 20:10:00;;;;;;;11.35;7.75;;;;;;;16.56;78.94;100007.81;10268672;28;20258;-75
2021/07/27 20:15:03;;;;;;;10.88;7.53;;;;;;;16.59;79.06;100002.03;10266117;28;20305;-75
2021/07/27 20:20:08;;;;;;;14.55;7.55;;;;;;;16.70;78.92;99992.69;10267168;28;20259;-75
2021/07/27 20:25:13;;;;;;;15.70;8.63;;;;;;;16.87;78.68;99979.06;10265576;28;20945;-75
2021/07/27 20:30:15;;;;;;;12.13;8.35;;;;;;;16.88;78.15;99970.75;10265955;28;20869;-75
2021/07/27 20:35:18;;;;;;;13.38;7.63;;;;;;;16.84;77.46;99977.56;10267405;28;20243;-75
2021/07/27 20:40:23;;;;;;;15.55;8.02;;;;;;;16.87;77.56;99979.91;10267822;28;20319;-74
2021/07/27 20:45:26;;;;;;;11.32;7.55;;;;;;;16.87;76.66;99988.06;10269984;28;21010;-75
2021/07/27 20:50:29;;;;;;;12.27;7.13;;;;;;;16.72;76.79;100003.34;10273757;28;20617;-75
2021/07/27 20:55:33;;;;;;;12.38;7.50;;;;;;;16.71;77.26;99998.97;10273404;28;20786;-74
2021/07/27 21:00:36;;;;;;;11.73;7.60;;;;;;;16.71;76.77;100001.66;10272055;28;20607;-75
2021/07/27 21:05:39;;;;;;;13.25;8.10;;;;;;;16.69;76.75;99995.56;10303015;28;20238;-75
2021/07/27 21:10:43;;;;;;;10.52;6.80;;;;;;;16.67;76.73;99994.88;10312659;28;20381;-75
2021/07/27 21:15:46;;;;;;;13.43;7.50;;;;;;;16.65;76.71;99995.06;10315785;28;20268;-75
2021/07/27 21:20:51;;;;;;;11.25;7.15;;;;;;;16.65;76.55;99988.78;10311519;28;20274;-75
2021/07/27 21:25:58;;;;;;;12.02;7.63;;;;;;;16.67;76.27;99990.31;10311240;28;20314;-75
2021/07/27 21:31:01;;;;;;;10.85;6.55;;;;;;;16.71;76.39;99991.66;10313203;28;20839;-75
2021/07/27 21:36:04;;;;;;;11.00;6.78;;;;;;;16.71;76.50;99990.81;10311938;28;20376;-75
2021/07/27 21:41:08;;;;;;;10.73;7.05;;;;;;;16.68;76.18;99978.44;10311003;28;20381;-74
2021/07/27 21:46:12;;;;;;;10.93;6.82;;;;;;;16.64;76.11;99990.66;10313187;28;20247;-75
2021/07/27 21:51:15;;;;;;;10.25;6.20;;;;;;;16.64;75.90;99990.66;10312068;28;20712;-75
2021/07/27 21:56:19;;;;;;;9.80;6.20;;;;;;;16.62;75.34;99994.56;10311764;28;22243;-75
2021/07/27 22:01:22;;;;;;;9.77;5.65;;;;;;;16.63;75.45;99983.56;10309651;28;20474;-75
2021/07/27 22:06:25;;;;;;;10.38;6.25;;;;;;;16.63;75.16;99982.72;10309852;28;20304;-75
2021/07/27 22:11:30;;;;;;;11.73;5.72;;;;;;;16.56;75.55;99987.97;10309238;28;20801;-75
2021/07/27 22:16:32;;;;;;;9.77;6.18;;;;;;;16.58;75.86;99980.50;10310817;28;20881;-75
2021/07/27 22:21:35;;;;;;;10.63;6.50;;;;;;;16.56;75.59;99980.69;10308509;28;20267;-75
2021/07/27 22:26:39;;;;;;;9.38;5.80;;;;;;;16.51;75.71;99985.78;10309904;28;20238;-75
2021/07/27 22:31:42;;;;;;;11.15;6.55;;;;;;;16.46;76.05;99977.31;10306989;28;20243;-75
2021/07/27 22:36:47;;;;;;;12.52;6.35;;;;;;;16.44;76.18;99982.06;10305213;28;20231;-75
2021/07/27 22:41:52;;;;;;;8.07;5.85;;;;;;;16.42;76.08;99988.66;10309757;28;20234;-75
2021/07/27 22:46:59;;;;;;;8.45;6.30;;;;;;;16.40;76.18;99988.00;10308829;28;20702;-75
2021/07/27 22:52:02;;;;;;;13.45;6.07;;;;;;;16.35;76.12;99986.66;10309922;28;20243;-75
2021/07/27 22:57:06;;;;;;;9.65;6.32;;;;;;;16.40;75.82;99988.88;10309380;28;20305;-75
2021/07/27 23:02:09;;;;;;;9.52;6.07;;;;;;;16.32;76.00;99981.59;10308872;28;20687;-75
2021/07/27 23:07:12;;;;;;;10.73;5.95;;;;;;;16.27;75.42;99985.81;10309874;28;20614;-75
2021/07/27 23:12:16;;;;;;;8.57;6.20;;;;;;;16.30;74.94;99988.19;10308200;28;20318;-75
2021/07/27 23:17:19;;;;;;;9.40;5.88;;;;;;;16.33;74.25;99974.28;10308027;28;20735;-75
2021/07/27 23:22:23;;;;;;;8.90;5.50;;;;;;;16.21;74.42;99972.91;10307909;28;20239;-75
2021/07/27 23:27:27;;;;;;;16.85;6.40;;;;;;;16.11;74.34;99973.09;10312659;28;20266;-75